»·PEaware :: SKW5954 KIFP-KFUL

SKW5954 :: KIFP-KFUL

FLIGHT INFORMATION

Flight Status: Arrived
Operator:
SkyWest Airlines
More flights by this operator :: More flights under this callsign
Pilot: Joshua M. (19482)
Aircraft: CANADAIR CL-600 CRJ-200
(CRJ2)
More flights by this aircraft type
Origin: KIFP Laughlin/Bullhead Intl
United States
Destination: KFUL Fullerton Mun
United States
More flights between these airports :: More routes between these airports
Route: +EED GFS HEC J60 PDZ V21 SLI
File this flight plan on PilotEdge
Remarks:
Altitude:
(Current/Filed)
21,000ft
Speed:
(Current/Filed)
450kts
Departed: 05-Jul-19 04:06 PM
Arrived: 05-Jul-19 04:49 PM
Distance/Time
Traveled:
186nm/0:43
Distance/Time
To Go:
Arrived

Flight Plot

Page will automatically refresh every two minutes.

Flight plan parsing failed; only flown route is shown


Map Options




Map Legend


Flown Route
Filed Route
Departure Airport
Arrival Airport
Navaid (VOR, NDB)
Fix

Horizontal Profiles

Position Reports

Time Latitude Longitude Heading Altitude Ground
Speed
05-Jul-19 15:32 35.164324 -114.556199 86 706ft 0kts
05-Jul-19 15:33 35.164324 -114.556199 86 706ft 0kts
05-Jul-19 15:34 35.164324 -114.556199 86 706ft 0kts
05-Jul-19 15:35 35.164324 -114.556199 86 706ft 0kts
05-Jul-19 15:36 35.164324 -114.556199 86 706ft 0kts
05-Jul-19 15:37 35.164324 -114.556199 86 706ft 0kts
05-Jul-19 15:38 35.164324 -114.556199 86 706ft 0kts
05-Jul-19 15:39 35.164324 -114.556199 86 706ft 0kts
05-Jul-19 15:40 35.164324 -114.556199 86 706ft 0kts
05-Jul-19 15:41 35.164324 -114.556199 86 706ft 0kts
05-Jul-19 15:42 35.164324 -114.556199 86 706ft 0kts
05-Jul-19 15:43 35.164324 -114.556199 86 706ft 0kts
05-Jul-19 15:44 35.164324 -114.556199 86 706ft 0kts
05-Jul-19 15:45 35.164324 -114.556199 86 706ft 0kts
05-Jul-19 15:46 35.164324 -114.556199 86 706ft 0kts
05-Jul-19 15:47 35.164324 -114.556199 86 706ft 0kts
05-Jul-19 15:48 35.164324 -114.556196 86 706ft 0kts
05-Jul-19 15:49 35.164302 -114.556641 86 706ft 2kts
05-Jul-19 15:50 35.164281 -114.557080 86 706ft 0kts
05-Jul-19 15:51 35.164281 -114.557080 86 706ft 0kts
05-Jul-19 15:52 35.163772 -114.556847 164 706ft 7kts
05-Jul-19 15:53 35.163017 -114.557067 252 706ft 0kts
05-Jul-19 15:54 35.163017 -114.557067 252 706ft 0kts
05-Jul-19 15:55 35.163017 -114.557067 252 706ft 0kts
05-Jul-19 15:56 35.163017 -114.557067 252 706ft 0kts
05-Jul-19 15:57 35.163009 -114.557100 254 706ft 0kts
05-Jul-19 15:58 35.162974 -114.557467 266 706ft 0kts
05-Jul-19 15:59 35.162965 -114.557651 266 706ft 0kts
05-Jul-19 16:00 35.162953 -114.557906 266 706ft 0kts
05-Jul-19 16:01 35.162953 -114.558066 273 706ft 5kts
05-Jul-19 16:02 35.165427 -114.558771 354 706ft 9kts
05-Jul-19 16:03 35.166158 -114.559113 291 706ft 0kts
05-Jul-19 16:04 35.166158 -114.559113 291 706ft 0kts
05-Jul-19 16:05 35.154836 -114.559330 176 707ft 159kts
05-Jul-19 16:06 35.096423 -114.547315 168 4445ft 239kts
05-Jul-19 16:07 35.028974 -114.531666 169 7037ft 274kts
05-Jul-19 16:08 34.950679 -114.514420 169 10030ft 287kts
05-Jul-19 16:09 34.869759 -114.496729 169 13742ft 328kts
05-Jul-19 16:10 34.779452 -114.505642 220 16004ft 350kts
05-Jul-19 16:11 34.768713 -114.614538 304 18872ft 364kts
05-Jul-19 16:12 34.858219 -114.682494 331 20104ft 419kts
05-Jul-19 16:13 34.933965 -114.795626 302 20090ft 443kts
05-Jul-19 16:14 34.999204 -114.921044 302 20091ft 437kts
05-Jul-19 16:15 35.063694 -115.045650 302 20092ft 441kts
05-Jul-19 16:16 35.118131 -115.176216 280 20100ft 449kts
05-Jul-19 16:17 35.094165 -115.321913 252 20091ft 451kts
05-Jul-19 16:18 35.058246 -115.462519 252 22081ft 420kts
05-Jul-19 16:19 35.020318 -115.610147 252 22178ft 465kts
05-Jul-19 16:20 34.982594 -115.756143 252 22091ft 462kts
05-Jul-19 16:21 34.943476 -115.906700 252 22091ft 465kts
05-Jul-19 16:22 34.904954 -116.054130 252 22091ft 462kts
05-Jul-19 16:23 34.866491 -116.200518 252 22093ft 468kts
05-Jul-19 16:24 34.827374 -116.348577 252 22098ft 467kts
05-Jul-19 16:25 34.778124 -116.492187 226 22090ft 464kts
05-Jul-19 16:26 34.685730 -116.600009 225 22091ft 462kts
05-Jul-19 16:27 34.606283 -116.697392 225 22091ft 461kts
05-Jul-19 16:28 34.528810 -116.792165 225 22091ft 461kts
05-Jul-19 16:29 34.442226 -116.897771 225 22091ft 460kts
05-Jul-19 16:30 34.354360 -117.004605 225 22091ft 460kts
05-Jul-19 16:31 34.280143 -117.094582 225 22091ft 459kts
05-Jul-19 16:32 34.198619 -117.193143 225 20966ft 458kts
05-Jul-19 16:33 34.122760 -117.284599 225 19028ft 449kts
05-Jul-19 16:34 34.052060 -117.369616 225 18067ft 421kts
05-Jul-19 16:35 33.971628 -117.466076 225 15157ft 424kts
05-Jul-19 16:36 33.909289 -117.567674 252 13130ft 369kts
05-Jul-19 16:37 33.886917 -117.674475 276 10571ft 342kts
05-Jul-19 16:38 33.945126 -117.726021 11 9940ft 261kts
05-Jul-19 16:39 34.014162 -117.708750 14 8090ft 255kts
05-Jul-19 16:40 34.032046 -117.632130 126 5296ft 247kts
05-Jul-19 16:41 33.963255 -117.649954 222 3964ft 226kts
05-Jul-19 16:42 33.923975 -117.704333 262 3977ft 202kts
05-Jul-19 16:43 33.911314 -117.774817 257 3186ft 198kts
05-Jul-19 16:44 33.900647 -117.830525 256 2593ft 154kts
05-Jul-19 16:45 33.891908 -117.876267 256 1705ft 140kts
05-Jul-19 16:46 33.883202 -117.921658 256 955ft 136kts
05-Jul-19 16:47 33.874612 -117.966520 255 263ft 138kts
05-Jul-19 16:48 33.870970 -117.984677 215 90ft 4kts
05-Jul-19 16:49 33.870668 -117.984580 146 90ft 0kts
05-Jul-19 16:50 33.871091 -117.979805 83 94ft 23kts

Navigation Log

Ident Type
Flight plan parsing failed, navigation log unavailable